Wan Hai 232 — S6EL2 — position and weather

sailwx.info

Track history (hours):
 
Tides and Currents Weather Stations Pressure Air Temp Water Temp Dewpoint Dewpoint Depression Visibility Wind Speed Wind Dir Waves Ship Positions

Wan Hai 232

Last reported at 2018-Jun-21 08:02 UTC. Time now 2018-Jun-25 00:21 UTC.
Position N 22°54' E 119°45'.

Length 191 m; draft 9.2 m.

Type: Cargo ship. MMSI: 565131000.

Date/timePositionNaut miles runAvg speedWind from/ knotsBaromVisibWave heightAir tempDewpointWater temp
2018-Jun-21 08:02N 22°54' E 119°45'114.0
2018-Jun-21 07:59N 22°55' E 119°45'  
2018-Jun-18 01:25N 35°03' E 129°07'4 9.9
2018-Jun-18 01:01N 35°06' E 129°04'0 0.9
2018-Jun-18 00:29N 35°06' E 129°04'0 0.0
2018-Jun-17 23:59N 35°06' E 129°04'0 0.0
2018-Jun-17 23:29N 35°06' E 129°04'0 0.0
2018-Jun-17 22:59N 35°06' E 129°04'0 0.0
2018-Jun-17 22:29N 35°06' E 129°04'0 0.0
2018-Jun-17 21:59N 35°06' E 129°04'0 0.0
2018-Jun-17 21:29N 35°06' E 129°04'0 0.0
2018-Jun-17 20:59N 35°06' E 129°04'0 0.0
2018-Jun-17 20:29N 35°06' E 129°04'0 0.0
2018-Jun-17 19:59N 35°06' E 129°04'0 0.0
2018-Jun-17 19:29N 35°06' E 129°04'0 0.0
2018-Jun-17 18:59N 35°06' E 129°04'0 0.0
2018-Jun-17 18:29N 35°06' E 129°04'0 0.0
2018-Jun-17 17:59N 35°06' E 129°04'0 0.0
2018-Jun-17 17:26N 35°06' E 129°04'0 0.0
2018-Jun-17 16:59N 35°06' E 129°04'0 0.0
2018-Jun-17 16:29N 35°06' E 129°04'0 0.0
2018-Jun-17 15:59N 35°06' E 129°04'0 0.0
2018-Jun-17 15:29N 35°06' E 129°04'0 0.0
2018-Jun-17 14:59N 35°06' E 129°04'0 0.0
2018-Jun-17 14:26N 35°06' E 129°04'0 0.0
2018-Jun-17 13:59N 35°06' E 129°04'0 0.0
2018-Jun-17 13:29N 35°06' E 129°04'2 3.5
2018-Jun-17 13:00N 35°05' E 129°06'4 8.9
2018-Jun-17 12:30N 35°05' E 129°11'5 0.2
2018-Jun-16 15:18N 35°03' E 129°17'  
2018-Jun-11 14:17N 24°16' E 120°31'0 0.0
2018-Jun-11 13:14N 24°16' E 120°31'0 0.0
2018-Jun-11 12:53N 24°16' E 120°31'0 0.0
2018-Jun-11 12:29N 24°16' E 120°31'  
Track history (hours):
 
Tides and Currents Weather Stations Pressure Air Temp Water Temp Dewpoint Dewpoint Depression Visibility Wind Speed Wind Dir Waves Ship Positions

Wan Hai 232

Last reported at 2018-Jun-21 08:02 UTC. Time now 2018-Jun-25 00:21 UTC.
Position N 22°54' E 119°45'.

Length 191 m; draft 9.2 m.

Type: Cargo ship. MMSI: 565131000.

Date/timePositionNaut miles runAvg speedWind from/ knotsBaromVisibWave heightAir tempDewpointWater temp
2018-Jun-21 08:02N 22°54' E 119°45'114.0
2018-Jun-21 07:59N 22°55' E 119°45'  
2018-Jun-18 01:25N 35°03' E 129°07'4 9.9
2018-Jun-18 01:01N 35°06' E 129°04'0 0.9
2018-Jun-18 00:29N 35°06' E 129°04'0 0.0
2018-Jun-17 23:59N 35°06' E 129°04'0 0.0
2018-Jun-17 23:29N 35°06' E 129°04'0 0.0
2018-Jun-17 22:59N 35°06' E 129°04'0 0.0
2018-Jun-17 22:29N 35°06' E 129°04'0 0.0
2018-Jun-17 21:59N 35°06' E 129°04'0 0.0
2018-Jun-17 21:29N 35°06' E 129°04'0 0.0
2018-Jun-17 20:59N 35°06' E 129°04'0 0.0
2018-Jun-17 20:29N 35°06' E 129°04'0 0.0
2018-Jun-17 19:59N 35°06' E 129°04'0 0.0
2018-Jun-17 19:29N 35°06' E 129°04'0 0.0
2018-Jun-17 18:59N 35°06' E 129°04'0 0.0
2018-Jun-17 18:29N 35°06' E 129°04'0 0.0
2018-Jun-17 17:59N 35°06' E 129°04'0 0.0
2018-Jun-17 17:26N 35°06' E 129°04'0 0.0
2018-Jun-17 16:59N 35°06' E 129°04'0 0.0
2018-Jun-17 16:29N 35°06' E 129°04'0 0.0
2018-Jun-17 15:59N 35°06' E 129°04'0 0.0
2018-Jun-17 15:29N 35°06' E 129°04'0 0.0
2018-Jun-17 14:59N 35°06' E 129°04'0 0.0
2018-Jun-17 14:26N 35°06' E 129°04'0 0.0
2018-Jun-17 13:59N 35°06' E 129°04'0 0.0
2018-Jun-17 13:29N 35°06' E 129°04'2 3.5
2018-Jun-17 13:00N 35°05' E 129°06'4 8.9
2018-Jun-17 12:30N 35°05' E 129°11'5 0.2
2018-Jun-16 15:18N 35°03' E 129°17'  
2018-Jun-11 14:17N 24°16' E 120°31'0 0.0
2018-Jun-11 13:14N 24°16' E 120°31'0 0.0
2018-Jun-11 12:53N 24°16' E 120°31'0 0.0
2018-Jun-11 12:29N 24°16' E 120°31'  

Dump ship's entire track history